sensor_id;sensor_type;location;lat;lon;timestamp;pressure;altitude;pressure_sealevel;temperature;humidity
45941;BME280;31858;46.008;8.978;2022-08-19T00:03:39;94029.84;;;15.78;100.00
45941;BME280;31858;46.008;8.978;2022-08-19T00:13:41;93995.41;;;15.73;100.00
45941;BME280;31858;46.008;8.978;2022-08-19T00:23:44;94004.97;;;15.74;100.00
45941;BME280;31858;46.008;8.978;2022-08-19T00:33:45;94012.34;;;15.70;100.00
45941;BME280;31858;46.008;8.978;2022-08-19T00:43:59;93999.94;;;15.59;100.00
45941;BME280;31858;46.008;8.978;2022-08-19T00:54:02;94002.31;;;15.54;100.00
45941;BME280;31858;46.008;8.978;2022-08-19T01:04:06;94005.09;;;15.50;100.00
45941;BME280;31858;46.008;8.978;2022-08-19T01:14:08;94002.00;;;15.52;100.00
45941;BME280;31858;46.008;8.978;2022-08-19T01:24:11;93989.25;;;15.56;100.00
45941;BME280;31858;46.008;8.978;2022-08-19T01:34:13;93988.16;;;15.53;100.00
45941;BME280;31858;46.008;8.978;2022-08-19T01:44:16;93984.94;;;15.42;100.00
45941;BME280;31858;46.008;8.978;2022-08-19T01:54:22;93963.25;;;15.33;100.00
45941;BME280;31858;46.008;8.978;2022-08-19T02:04:25;93956.50;;;15.25;100.00
45941;BME280;31858;46.008;8.978;2022-08-19T02:14:27;93958.63;;;15.53;100.00
45941;BME280;31858;46.008;8.978;2022-08-19T02:24:30;93955.06;;;15.60;100.00
45941;BME280;31858;46.008;8.978;2022-08-19T02:34:32;93955.63;;;15.68;100.00
45941;BME280;31858;46.008;8.978;2022-08-19T02:44:35;93939.34;;;15.75;100.00
45941;BME280;31858;46.008;8.978;2022-08-19T02:54:37;93934.03;;;15.55;100.00
45941;BME280;31858;46.008;8.978;2022-08-19T03:04:41;93914.44;;;15.58;100.00
45941;BME280;31858;46.008;8.978;2022-08-19T03:14:42;93914.81;;;15.56;100.00
45941;BME280;31858;46.008;8.978;2022-08-19T03:24:47;93903.75;;;15.54;100.00
45941;BME280;31858;46.008;8.978;2022-08-19T03:34:48;93919.81;;;15.38;100.00
45941;BME280;31858;46.008;8.978;2022-08-19T03:44:52;93920.22;;;15.37;100.00
45941;BME280;31858;46.008;8.978;2022-08-19T03:54:54;93932.03;;;15.23;100.00
45941;BME280;31858;46.008;8.978;2022-08-19T04:04:57;93945.44;;;15.23;100.00
45941;BME280;31858;46.008;8.978;2022-08-19T04:14:58;93953.97;;;15.38;100.00
45941;BME280;31858;46.008;8.978;2022-08-19T04:25:02;93975.56;;;15.30;100.00
45941;BME280;31858;46.008;8.978;2022-08-19T04:35:05;93982.94;;;15.46;100.00
45941;BME280;31858;46.008;8.978;2022-08-19T04:45:10;94000.81;;;15.53;100.00
45941;BME280;31858;46.008;8.978;2022-08-19T04:55:13;93998.97;;;15.50;100.00
45941;BME280;31858;46.008;8.978;2022-08-19T05:05:16;93999.88;;;15.43;100.00
45941;BME280;31858;46.008;8.978;2022-08-19T05:15:18;93996.69;;;15.48;100.00
45941;BME280;31858;46.008;8.978;2022-08-19T05:25:22;93993.97;;;15.68;100.00
45941;BME280;31858;46.008;8.978;2022-08-19T05:35:25;93984.13;;;15.61;100.00
45941;BME280;31858;46.008;8.978;2022-08-19T05:45:30;93991.22;;;15.72;100.00
45941;BME280;31858;46.008;8.978;2022-08-19T05:55:31;93986.19;;;15.74;100.00
45941;BME280;31858;46.008;8.978;2022-08-19T06:05:34;94001.78;;;15.62;100.00
45941;BME280;31858;46.008;8.978;2022-08-19T06:15:36;94036.00;;;15.39;100.00
45941;BME280;31858;46.008;8.978;2022-08-19T06:25:40;94043.78;;;15.33;100.00
45941;BME280;31858;46.008;8.978;2022-08-19T06:35:41;94077.50;;;15.54;100.00
45941;BME280;31858;46.008;8.978;2022-08-19T06:45:44;94086.81;;;15.69;100.00
45941;BME280;31858;46.008;8.978;2022-08-19T06:55:46;94081.28;;;15.76;100.00
45941;BME280;31858;46.008;8.978;2022-08-19T07:05:49;94093.34;;;15.88;100.00
45941;BME280;31858;46.008;8.978;2022-08-19T07:15:51;94097.09;;;16.10;100.00
45941;BME280;31858;46.008;8.978;2022-08-19T07:25:54;94091.63;;;16.14;100.00
45941;BME280;31858;46.008;8.978;2022-08-19T07:35:57;94087.06;;;16.30;100.00
45941;BME280;31858;46.008;8.978;2022-08-19T07:46:00;94096.66;;;16.48;100.00
45941;BME280;31858;46.008;8.978;2022-08-19T07:56:02;94092.88;;;16.61;100.00
45941;BME280;31858;46.008;8.978;2022-08-19T08:06:06;94110.41;;;16.86;100.00
45941;BME280;31858;46.008;8.978;2022-08-19T08:16:24;94114.50;;;16.90;100.00
45941;BME280;31858;46.008;8.978;2022-08-19T08:26:31;94122.31;;;17.01;100.00
45941;BME280;31858;46.008;8.978;2022-08-19T08:36:36;94126.56;;;17.15;100.00
45941;BME280;31858;46.008;8.978;2022-08-19T08:46:45;94148.84;;;17.32;100.00
45941;BME280;31858;46.008;8.978;2022-08-19T08:56:49;94159.03;;;17.40;100.00
45941;BME280;31858;46.008;8.978;2022-08-19T09:06:58;94176.25;;;17.59;100.00
45941;BME280;31858;46.008;8.978;2022-08-19T09:17:04;94165.97;;;17.70;100.00
45941;BME280;31858;46.008;8.978;2022-08-19T09:27:09;94174.44;;;17.85;100.00
45941;BME280;31858;46.008;8.978;2022-08-19T09:37:11;94181.47;;;17.95;100.00
45941;BME280;31858;46.008;8.978;2022-08-19T09:47:14;94166.97;;;18.05;100.00
45941;BME280;31858;46.008;8.978;2022-08-19T09:57:17;94170.31;;;18.09;100.00
45941;BME280;31858;46.008;8.978;2022-08-19T10:07:20;94161.69;;;18.14;100.00
45941;BME280;31858;46.008;8.978;2022-08-19T10:17:22;94175.28;;;18.11;100.00
45941;BME280;31858;46.008;8.978;2022-08-19T10:27:27;94167.38;;;18.04;100.00
45941;BME280;31858;46.008;8.978;2022-08-19T10:37:28;94156.69;;;18.00;100.00
45941;BME280;31858;46.008;8.978;2022-08-19T10:47:33;94145.06;;;18.03;100.00
45941;BME280;31858;46.008;8.978;2022-08-19T10:57:35;94148.19;;;18.02;100.00
45941;BME280;31858;46.008;8.978;2022-08-19T11:07:39;94148.66;;;18.38;100.00
45941;BME280;31858;46.008;8.978;2022-08-19T11:17:41;94144.47;;;18.50;100.00
45941;BME280;31858;46.008;8.978;2022-08-19T11:27:45;94147.03;;;18.41;100.00
45941;BME280;31858;46.008;8.978;2022-08-19T11:37:47;94148.75;;;18.35;100.00
45941;BME280;31858;46.008;8.978;2022-08-19T11:47:50;94139.69;;;18.03;100.00
45941;BME280;31858;46.008;8.978;2022-08-19T11:57:51;94120.59;;;18.10;100.00
45941;BME280;31858;46.008;8.978;2022-08-19T12:07:54;94099.09;;;17.94;100.00
45941;BME280;31858;46.008;8.978;2022-08-19T12:17:57;94096.41;;;17.94;100.00
45941;BME280;31858;46.008;8.978;2022-08-19T12:28:00;94087.81;;;18.12;100.00
45941;BME280;31858;46.008;8.978;2022-08-19T12:38:01;94082.97;;;18.19;100.00
45941;BME280;31858;46.008;8.978;2022-08-19T12:48:05;94077.66;;;18.41;100.00
45941;BME280;31858;46.008;8.978;2022-08-19T12:58:06;94076.16;;;18.66;100.00
45941;BME280;31858;46.008;8.978;2022-08-19T13:08:09;94072.19;;;19.17;100.00
45941;BME280;31858;46.008;8.978;2022-08-19T13:18:12;94077.25;;;19.50;100.00
45941;BME280;31858;46.008;8.978;2022-08-19T13:28:15;94062.16;;;19.62;100.00
45941;BME280;31858;46.008;8.978;2022-08-19T13:38:19;94042.47;;;19.83;100.00
45941;BME280;31858;46.008;8.978;2022-08-19T13:48:23;94054.97;;;19.90;100.00
45941;BME280;31858;46.008;8.978;2022-08-19T13:58:26;94047.81;;;19.96;100.00
45941;BME280;31858;46.008;8.978;2022-08-19T14:08:29;94045.47;;;20.07;100.00
45941;BME280;31858;46.008;8.978;2022-08-19T14:18:32;94039.06;;;20.23;100.00
45941;BME280;31858;46.008;8.978;2022-08-19T14:28:35;94042.41;;;20.27;82.07
45941;BME280;31858;46.008;8.978;2022-08-19T14:38:37;94034.50;;;20.41;80.57
45941;BME280;31858;46.008;8.978;2022-08-19T14:48:40;94034.63;;;20.38;76.69
45941;BME280;31858;46.008;8.978;2022-08-19T14:58:42;94029.63;;;20.85;63.14
45941;BME280;31858;46.008;8.978;2022-08-19T15:08:46;94029.69;;;21.40;56.30
45941;BME280;31858;46.008;8.978;2022-08-19T15:18:49;94047.47;;;21.41;57.63
45941;BME280;31858;46.008;8.978;2022-08-19T15:28:53;94059.50;;;21.40;67.75
45941;BME280;31858;46.008;8.978;2022-08-19T15:38:55;94068.97;;;21.27;64.57
45941;BME280;31858;46.008;8.978;2022-08-19T15:48:58;94078.91;;;21.30;64.96
45941;BME280;31858;46.008;8.978;2022-08-19T15:59:00;94074.84;;;21.34;65.03
45941;BME280;31858;46.008;8.978;2022-08-19T16:09:29;94085.09;;;21.76;58.90
45941;BME280;31858;46.008;8.978;2022-08-19T16:19:33;94100.75;;;21.72;61.24
45941;BME280;31858;46.008;8.978;2022-08-19T16:29:36;94111.91;;;21.56;61.88
45941;BME280;31858;46.008;8.978;2022-08-19T16:39:39;94117.19;;;21.68;71.56
45941;BME280;31858;46.008;8.978;2022-08-19T16:49:42;94122.28;;;21.30;69.64
45941;BME280;31858;46.008;8.978;2022-08-19T16:59:44;94131.97;;;21.00;60.82
45941;BME280;31858;46.008;8.978;2022-08-19T17:09:47;94136.34;;;21.06;60.56
45941;BME280;31858;46.008;8.978;2022-08-19T17:19:49;94156.44;;;21.27;55.75
45941;BME280;31858;46.008;8.978;2022-08-19T17:29:54;94153.22;;;21.10;54.49
45941;BME280;31858;46.008;8.978;2022-08-19T17:39:57;94161.81;;;21.18;52.31
45941;BME280;31858;46.008;8.978;2022-08-19T17:50:00;94158.16;;;21.03;56.72
45941;BME280;31858;46.008;8.978;2022-08-19T18:00:04;94173.19;;;20.95;57.37
45941;BME280;31858;46.008;8.978;2022-08-19T18:10:08;94171.94;;;20.77;60.23
45941;BME280;31858;46.008;8.978;2022-08-19T18:20:16;94180.31;;;20.70;61.40
45941;BME280;31858;46.008;8.978;2022-08-19T18:30:19;94190.41;;;20.70;54.20
45941;BME280;31858;46.008;8.978;2022-08-19T18:40:23;94209.78;;;20.68;57.39
45941;BME280;31858;46.008;8.978;2022-08-19T18:50:57;94211.47;;;20.75;56.14
45941;BME280;31858;46.008;8.978;2022-08-19T19:01:01;94234.97;;;20.78;58.23
45941;BME280;31858;46.008;8.978;2022-08-19T19:11:05;94236.69;;;20.63;58.48
45941;BME280;31858;46.008;8.978;2022-08-19T19:21:08;94270.00;;;20.50;58.75
45941;BME280;31858;46.008;8.978;2022-08-19T19:31:16;94259.00;;;20.32;55.58
45941;BME280;31858;46.008;8.978;2022-08-19T19:41:19;94258.22;;;20.66;55.01
45941;BME280;31858;46.008;8.978;2022-08-19T19:51:24;94265.88;;;20.68;55.19
45941;BME280;31858;46.008;8.978;2022-08-19T20:01:26;94272.25;;;20.52;59.67
45941;BME280;31858;46.008;8.978;2022-08-19T20:11:32;94292.72;;;20.18;61.70
45941;BME280;31858;46.008;8.978;2022-08-19T20:21:34;94294.09;;;20.23;62.28
45941;BME280;31858;46.008;8.978;2022-08-19T20:31:40;94292.72;;;20.18;60.88
45941;BME280;31858;46.008;8.978;2022-08-19T20:41:42;94289.84;;;20.35;59.57
45941;BME280;31858;46.008;8.978;2022-08-19T20:51:45;94283.78;;;20.31;58.83
45941;BME280;31858;46.008;8.978;2022-08-19T21:01:47;94277.81;;;20.36;57.07
45941;BME280;31858;46.008;8.978;2022-08-19T21:11:52;94283.00;;;20.43;56.65
45941;BME280;31858;46.008;8.978;2022-08-19T21:21:54;94274.59;;;20.41;56.61
45941;BME280;31858;46.008;8.978;2022-08-19T21:31:57;94290.84;;;20.28;59.66
45941;BME280;31858;46.008;8.978;2022-08-19T21:41:58;94292.75;;;20.06;60.01
45941;BME280;31858;46.008;8.978;2022-08-19T21:52:02;94302.25;;;20.10;63.13
45941;BME280;31858;46.008;8.978;2022-08-19T22:12:20;94314.69;;;19.73;64.61
45941;BME280;31858;46.008;8.978;2022-08-19T22:22:25;94319.22;;;19.64;63.72
45941;BME280;31858;46.008;8.978;2022-08-19T22:32:29;94329.81;;;19.71;62.85
45941;BME280;31858;46.008;8.978;2022-08-19T22:42:30;94342.03;;;19.63;62.17
45941;BME280;31858;46.008;8.978;2022-08-19T22:52:33;94347.13;;;19.61;61.80
45941;BME280;31858;46.008;8.978;2022-08-19T23:02:36;94333.50;;;19.64;66.14
45941;BME280;31858;46.008;8.978;2022-08-19T23:12:41;94339.13;;;19.44;65.11
45941;BME280;31858;46.008;8.978;2022-08-19T23:22:45;94336.09;;;19.55;63.55
45941;BME280;31858;46.008;8.978;2022-08-19T23:32:50;94333.41;;;19.55;64.34
45941;BME280;31858;46.008;8.978;2022-08-19T23:42:52;94332.41;;;19.36;65.44
45941;BME280;31858;46.008;8.978;2022-08-19T23:52:56;94335.34;;;19.42;63.79
